静岡 の空港の天気 - METARとTAF

静岡空港 ( RJNS / FSZ ) - 静岡県島田市/牧之原市
飛行場実況気象(Metar)
観測時間10/15 21:00 JST (10/15 12:00 UTC)
風向・風速北北東 2m/s
視程3000m
天気現象弱いしゅう雨 もや
少しの雲 雲底高度 不明
全天の8割程度の雲 雲底高度 60m
全天の8割程度の雲 雲底高度 300m
気温17℃
湿度100%
気圧1022hPa
METARRJNS 151200Z 03003KT 360V080 3000 -SHRA BR FEW000 BKN002 BKN010 17/17 Q1022
過去の天気等 Google飛行場航空写真 Wunderground天気予報

過去48時間のMETAR

飛行場予報(TAF)
発表時間: 10/15 20:06 JST (10/15 11:06 UTC)
予報対象時間: 15日21時 JST ~ 17日3時 JST
風向・風速東 2m/s
視程8000m
天気現象弱いしゅう雨
少しの雲 雲底高度 240m
全天の8割程度の雲 雲底高度 460m
15日21時 JST ~ 15日23時 JST に一時的に
視程4000m
天気現象弱いしゅう雨 もや
少しの雲 雲底高度 150m
全天の8割程度の雲 雲底高度 240m
16日18時 JST ~ 16日21時 JST に徐々に
風向・風速北 3m/s
TAF RJNS 151106Z 1512/1618 09004KT 8000 -SHRA FEW008 BKN015
TEMPO 1512/1514 4000 -SHRA BR FEW005 BKN008
BECMG 1609/1612 01005KT
日本の空港のMETAR・TAFへのリンク

RJTT 東京国際空港
RJAA 新東京国際空港
RJBB 関西国際空港
RJOO 大阪空港
RJGG 中部国際空港
RJCC 新千歳空港
RJFF 福岡空港
ROAH 那覇空港


RJEC 旭川空港
RJCH 函館空港
RJCK 釧路空港
RJCM 女満別空港
RJCB 帯広空港
RJSA 青森空港
RJSS 仙台空港
RJSK 秋田空港
RJSF 福島空港
RJAH 茨城空港
RJSN 新潟空港
RJNT 富山空港
RJNK 小松飛行場
RJNS 静岡空港
RJOH 美保飛行場
RJOC 出雲空港
RJOB 岡山空港
RJOA 広島空港
RJOI 岩国飛行場
RJOT 高松空港
RJOM 松山空港
RJOK 高知空港
RJFR 北九州空港
RJFT 熊本空港
RJFU 長崎空港
RJFS 佐賀空港
RJFO 大分空港
RJFM 宮崎空港
RJFK 鹿児島空港
ROIG 石垣島空港
RJTY 横田飛行場
ROTM 普天間飛行場
RODN 嘉手納飛行場